Gorham, NH (03581)

8:52 AM EDT on September 04, 2015 (GMT -0400)
Norwegian village | | Change Station
CLOSE
Current Station
Personal Weather Station
Location: Berlin, NH
Elevation: 1099 ft
Nearby Weather Stations

Elev 1099 ft 44.48 °N, 71.17 °W | Updated 14 seconds ago

Partly Cloudy
Partly Cloudy
68.4 °F
Feels Like 68.4 °F
N
0.0
Wind Variable Wind from SW
Gusts 1.6 mph

Today
High -- | Low -- °F
--% Chance of Precip.
Yesterday
High -- | Low -- °F
Precip. -- in
6:11 AM 7:16 PM
Waning Gibbous, 60% visible
Pressure 30.17 in
Visibility 10.0 miles
Clouds Clear
Dew Point 58 °F
Humidity 69%
Rainfall 0.16 in
Snow Depth Not available.
UV 1 out of 12
Pollen 7.90 out of 12
Air Quality Not available.
Flu Activity Not available.
METAR KHIE 041152Z AUTO 09010KT 10SM CLR 17/09 A3017 RMK AO2 SLP215 70005 T01670089 10167 20094 53024 TSNO
Pressure 30.17 in
Visibility 10.0 miles
Clouds Clear
Dew Point 58 °F
Humidity 69%
Rainfall 0.16 in
Snow Depth Not available.
UV 1 out of 12
Pollen 7.90 out of 12
Air Quality Not available.
Flu Activity Not available.
METAR KHIE 041152Z AUTO 09010KT 10SM CLR 17/09 A3017 RMK AO2 SLP215 70005 T01670089 10167 20094 53024 TSNO

10-Day Weather Forecast

×

Almanac

Astronomy

Sep. 04, 2015 Rise Set
Actual Time
Civil Twilight
Nautical Twilight
Astronomical Twilight
Moon
Length of Visible Light
Length of Day
Tomorrow will be .
, % of the Moon is Illuminated

Today's Extremes

State Highs State Lows

Community

WunderPhotos

Upload Photos

1,852,174 photos uploaded!

WunderBlogs® & News

Nearby

Air Quality

  Air Quality AQ Index Pollutant
Not available.

Snow Depth

Station Depth Elevation

Earthquake Activity

City Distance Mag. Time & Date
Minimum magnitude displayed is 2.5.

Coastal Water Temperatures

Place Temperature

Stations

Nearby Weather Stations

Station Location Temp. Windchill Dew Point Humidity Wind Precip. Elev Updated Type